Time;durP1;ratioP1;P1;durP2;ratioP2;P2;SDS_P1;SDS_P2;PMS_P1;PMS_P2;Temp;Humidity;BMP_temperature;BMP_pressure;BME280_temperature;BME280_humidity;BME280_pressure;Samples;Min_cycle;Max_cycle;Signal;HPM_P1;HPM_P2
2024/03/07 09:54:08;;;;;;;33.87;23.70;;;;;;;13.60;45.06;99097.06;6839345;28;20233;-84
2024/03/07 10:53:42;;;;;;;35.70;24.60;;;;;;;11.20;48.97;99081.00;6837728;28;20320;-87
2024/03/07 10:57:53;;;;;;;33.27;24.13;;;;;;;11.07;49.09;99072.88;6860739;28;20250;-82
2024/03/07 11:22:02;;;;;;;32.20;23.17;;;;;;;12.23;45.09;99060.63;8078972;23;20245;-83
2024/03/07 11:25:26;;;;;;;32.50;23.30;;;;;;;11.50;47.55;99037.28;6813237;29;20206;-85
2024/03/07 11:28:49;;;;;;;38.87;24.57;;;;;;;11.59;48.88;99054.16;6813403;29;20226;-85
2024/03/07 11:32:13;;;;;;;32.33;22.93;;;;;;;12.60;46.50;99043.69;6813064;29;20708;-82
2024/03/07 13:15:28;;;;;;;32.60;24.07;;;;;;;11.81;46.16;98820.63;6794022;29;20246;-83
2024/03/07 13:18:55;;;;;;;33.70;24.00;;;;;;;11.83;47.76;98964.41;6792067;29;20238;-81
2024/03/07 13:23:02;;;;;;;34.53;25.00;;;;;;;12.02;48.84;98963.53;6790615;29;20585;-84
2024/03/07 15:06:08;;;;;;;24.23;18.40;;;;;;;12.97;41.36;98896.81;6636564;29;20226;-82
2024/03/07 15:09:30;;;;;;;29.67;19.90;;;;;;;12.83;43.82;98898.78;6695330;29;20287;-83
2024/03/07 15:12:52;;;;;;;29.07;21.27;;;;;;;13.07;42.55;98892.63;6702243;29;20270;-82
2024/03/07 15:16:15;;;;;;;29.83;22.07;;;;;;;11.44;45.94;98826.66;6722004;29;20242;-83
2024/03/07 15:19:37;;;;;;;29.43;19.97;;;;;;;12.14;44.67;98894.28;6730879;29;20232;-85
2024/03/07 15:23:00;;;;;;;25.33;18.20;;;;;;;12.14;42.11;98824.00;6732737;29;20269;-85
2024/03/07 15:26:23;;;;;;;24.93;17.57;;;;;;;12.31;43.82;98884.66;6744565;29;20796;-84
2024/03/07 15:29:45;;;;;;;28.37;19.57;;;;;;;13.51;41.50;98880.81;6761568;29;20307;-83
2024/03/07 15:33:08;;;;;;;28.13;19.73;;;;;;;13.37;41.15;98881.97;6759018;29;20326;-84
2024/03/07 15:36:30;;;;;;;25.37;19.60;;;;;;;12.75;42.48;98876.56;6760440;29;20238;-84
2024/03/07 15:39:52;;;;;;;26.13;17.87;;;;;;;13.32;41.68;98885.34;6759974;29;20613;-83
2024/03/07 15:43:16;;;;;;;26.77;19.40;;;;;;;12.43;42.69;98869.44;6761834;29;20728;-83
2024/03/07 15:46:38;;;;;;;24.90;18.60;;;;;;;13.11;41.11;98809.91;6760503;29;20715;-83
2024/03/07 15:50:30;;;;;;;24.30;17.83;;;;;;;12.86;42.66;98871.28;6777442;29;20322;-84
2024/03/07 16:06:58;;;;;;;26.40;17.90;;;;;;;12.23;43.38;98872.22;6794718;29;20179;-83
2024/03/07 16:15:28;;;;;;;25.43;17.97;;;;;;;12.54;42.02;98803.84;6734777;29;20324;-84
2024/03/07 16:36:39;;;;;;;22.73;18.13;;;;;;;12.03;43.37;98839.03;6640770;29;20210;-83
2024/03/07 16:48:49;;;;;;;24.53;16.77;;;;;;;13.10;42.08;98834.50;6616810;29;20707;-84
2024/03/07 16:52:44;;;;;;;22.50;17.50;;;;;;;12.87;41.79;98789.03;6704504;29;20744;-84
2024/03/07 16:56:56;;;;;;;24.37;16.90;;;;;;;13.02;42.32;98862.66;6696007;29;20208;-84
2024/03/07 17:00:42;;;;;;;21.23;16.17;;;;;;;12.14;43.15;98721.31;6723810;29;20229;-81
2024/03/07 17:24:07;;;;;;;21.10;15.07;;;;;;;11.34;46.72;98732.63;6728992;29;20404;-83
2024/03/07 17:28:18;;;;;;;17.73;14.00;;;;;;;12.20;46.49;98869.94;6762283;29;20235;-81
2024/03/07 17:32:43;;;;;;;19.90;14.70;;;;;;;11.16;47.24;98716.28;6762954;29;20202;-82
2024/03/07 17:36:07;;;;;;;20.10;14.77;;;;;;;12.50;46.54;98862.09;6687635;29;20669;-84
2024/03/07 17:39:29;;;;;;;22.13;15.03;;;;;;;12.32;46.75;98865.53;6707786;29;20240;-84
2024/03/07 17:42:52;;;;;;;22.70;14.40;;;;;;;11.73;48.06;98862.19;6713287;29;20913;-82
2024/03/07 17:46:14;;;;;;;20.67;14.73;;;;;;;12.12;47.76;98866.66;6707612;29;20299;-82
2024/03/07 17:49:38;;;;;;;20.67;16.13;;;;;;;11.11;49.52;98866.38;6708108;29;20998;-83
2024/03/07 17:53:01;;;;;;;20.70;15.10;;;;;;;11.31;49.42;98861.78;6708280;29;20307;-83
2024/03/07 17:56:25;;;;;;;20.60;15.97;;;;;;;12.18;47.87;98850.44;6707825;29;20244;-82
2024/03/07 18:00:15;;;;;;;22.57;16.53;;;;;;;11.93;47.64;98870.25;6815680;23;20266;-82
2024/03/07 18:03:36;;;;;;;21.73;15.50;;;;;;;11.84;47.84;98885.84;6814752;29;20191;-82
2024/03/07 18:06:58;;;;;;;19.37;15.00;;;;;;;11.92;47.95;98887.50;6815825;29;20250;-83
2024/03/07 18:10:19;;;;;;;25.90;18.23;;;;;;;11.82;48.31;98881.72;6814193;29;20276;-83
2024/03/07 18:13:42;;;;;;;24.10;17.53;;;;;;;10.79;49.58;98788.94;6814541;29;20235;-83
2024/03/07 18:17:04;;;;;;;21.57;16.23;;;;;;;11.97;48.32;98872.31;6813705;29;20323;-83
2024/03/07 18:20:27;;;;;;;23.27;16.67;;;;;;;12.00;48.51;98865.66;6814737;29;20214;-83
2024/03/07 18:23:49;;;;;;;21.40;16.50;;;;;;;11.76;48.61;98853.66;6814841;29;20212;-82
2024/03/07 18:27:11;;;;;;;25.83;17.80;;;;;;;12.15;48.05;98875.16;6814765;29;20210;-82
2024/03/07 18:30:34;;;;;;;21.43;16.23;;;;;;;11.22;49.88;98853.06;6820894;29;20214;-82
2024/03/07 18:33:56;;;;;;;29.47;19.50;;;;;;;11.64;49.51;98865.31;6819196;29;20594;-83
2024/03/07 18:37:17;;;;;;;24.00;17.37;;;;;;;11.58;49.17;98858.88;6812631;29;20681;-84
2024/03/07 18:40:39;;;;;;;22.57;16.47;;;;;;;11.89;48.97;98861.75;6812540;29;20261;-83
2024/03/07 18:44:01;;;;;;;27.17;17.90;;;;;;;11.62;48.97;98857.44;6812871;29;20245;-85
2024/03/07 18:47:24;;;;;;;25.93;18.10;;;;;;;11.71;48.93;98845.38;6809391;29;20281;-83
2024/03/07 18:50:46;;;;;;;23.93;17.17;;;;;;;10.97;50.92;98849.34;6810214;29;20230;-82
2024/03/07 18:54:09;;;;;;;22.90;15.97;;;;;;;11.38;49.93;98862.59;6811949;29;20237;-82
2024/03/07 18:57:30;;;;;;;23.23;17.33;;;;;;;11.05;50.22;98826.72;6811618;29;20234;-84
2024/03/07 19:00:52;;;;;;;22.97;15.57;;;;;;;11.53;49.24;98825.44;6810281;29;20242;-84
2024/03/07 19:04:18;;;;;;;19.87;16.00;;;;;;;11.44;49.95;98845.56;6812094;29;20218;-82
2024/03/07 19:07:40;;;;;;;25.33;18.23;;;;;;;11.19;50.23;98837.31;6805149;29;20227;-84
2024/03/07 19:11:04;;;;;;;19.33;14.53;;;;;;;10.91;51.22;98860.94;6810230;29;20354;-83
2024/03/07 19:14:26;;;;;;;21.30;16.77;;;;;;;10.42;52.39;98852.34;6810542;29;20226;-82
2024/03/07 19:17:50;;;;;;;28.03;16.80;;;;;;;10.60;51.94;98830.19;6810303;29;20740;-84
2024/03/07 19:21:13;;;;;;;21.27;16.13;;;;;;;11.13;50.69;98840.84;6810866;29;20202;-82
2024/03/07 19:24:34;;;;;;;22.23;16.33;;;;;;;11.07;50.86;98849.75;6810397;29;20350;-84
2024/03/07 19:27:58;;;;;;;21.80;15.87;;;;;;;10.83;50.37;98765.91;6812574;29;20234;-83
2024/03/07 19:31:20;;;;;;;22.10;15.93;;;;;;;11.59;49.50;98830.03;6812202;29;20210;-84
2024/03/07 19:34:41;;;;;;;23.53;18.00;;;;;;;11.39;50.03;98821.09;6819282;29;20316;-81
2024/03/07 19:38:06;;;;;;;20.37;16.43;;;;;;;11.57;49.77;98842.88;6810150;29;20710;-84
2024/03/07 19:41:28;;;;;;;21.03;15.10;;;;;;;11.33;50.21;98835.44;6815445;29;20469;-84
2024/03/07 19:44:49;;;;;;;21.57;16.03;;;;;;;11.24;50.83;98832.13;6813740;29;20237;-84
2024/03/07 19:48:11;;;;;;;23.57;16.73;;;;;;;11.16;50.63;98835.00;6815079;29;20389;-83
2024/03/07 19:51:32;;;;;;;22.63;16.23;;;;;;;11.42;50.37;98835.00;6815186;29;20242;-85
2024/03/07 19:54:55;;;;;;;22.07;15.93;;;;;;;11.00;50.87;98819.25;6802703;29;20286;-83
2024/03/07 19:58:17;;;;;;;23.73;16.20;;;;;;;10.71;51.58;98818.81;6828262;29;20237;-83
2024/03/07 20:01:38;;;;;;;22.17;16.63;;;;;;;11.43;50.30;98817.75;6811648;29;20293;-83
2024/03/07 20:05:00;;;;;;;25.57;16.83;;;;;;;10.99;50.95;98822.97;6819123;29;20238;-83
2024/03/07 20:08:26;;;;;;;23.27;16.03;;;;;;;10.99;50.65;98814.06;6834276;29;20229;-84
2024/03/07 20:11:51;;;;;;;20.30;15.50;;;;;;;11.05;50.46;98797.03;6838913;28;20200;-83
2024/03/07 20:15:13;;;;;;;22.70;17.27;;;;;;;10.61;51.69;98800.34;6838260;28;20220;-84
2024/03/07 20:18:36;;;;;;;23.83;16.53;;;;;;;11.14;50.88;98811.97;6837741;28;20230;-83
2024/03/07 20:21:59;;;;;;;24.33;17.77;;;;;;;11.14;49.90;98807.41;6820622;28;20210;-84
2024/03/07 20:25:21;;;;;;;22.57;16.17;;;;;;;11.49;49.84;98803.41;6811791;29;20203;-84
2024/03/07 20:28:55;;;;;;;22.37;16.63;;;;;;;10.91;50.67;98811.56;6810666;29;20238;-84
2024/03/07 20:32:17;;;;;;;22.27;16.70;;;;;;;11.26;49.71;98799.50;6818493;29;20236;-83
2024/03/07 20:35:38;;;;;;;23.17;15.17;;;;;;;10.53;51.68;98802.41;6830322;28;20248;-83
2024/03/07 20:39:02;;;;;;;22.93;15.43;;;;;;;11.07;50.44;98798.50;6813660;29;20214;-83
2024/03/07 20:42:24;;;;;;;23.43;16.27;;;;;;;11.14;49.73;98796.63;6821246;28;20238;-84
2024/03/07 20:45:47;;;;;;;22.67;14.93;;;;;;;11.34;49.79;98802.00;6820873;28;20215;-83
2024/03/07 20:49:09;;;;;;;20.43;16.03;;;;;;;11.10;49.90;98808.84;6826408;29;20272;-85
2024/03/07 20:52:31;;;;;;;24.47;16.43;;;;;;;11.30;49.38;98781.84;6842979;28;20280;-86
